sensor_id;sensor_type;location;lat;lon;timestamp;P1;durP1;ratioP1;P2;durP2;ratioP2
25854;SDS011;13680;49.936;11.344;2023-12-20T00:01:20;23.17;;;12.80;;
25854;SDS011;13680;49.936;11.344;2023-12-20T00:03:46;18.00;;;12.25;;
25854;SDS011;13680;49.936;11.344;2023-12-20T00:06:12;20.50;;;13.02;;
25854;SDS011;13680;49.936;11.344;2023-12-20T00:08:37;20.15;;;13.07;;
25854;SDS011;13680;49.936;11.344;2023-12-20T00:11:02;20.95;;;13.30;;
25854;SDS011;13680;49.936;11.344;2023-12-20T00:13:28;23.23;;;13.38;;
25854;SDS011;13680;49.936;11.344;2023-12-20T00:15:53;21.35;;;11.18;;
25854;SDS011;13680;49.936;11.344;2023-12-20T00:18:18;20.50;;;12.25;;
25854;SDS011;13680;49.936;11.344;2023-12-20T00:20:44;17.60;;;11.40;;
25854;SDS011;13680;49.936;11.344;2023-12-20T00:23:09;17.33;;;10.80;;
25854;SDS011;13680;49.936;11.344;2023-12-20T00:25:34;16.27;;;11.15;;
25854;SDS011;13680;49.936;11.344;2023-12-20T00:28:00;17.15;;;11.57;;
25854;SDS011;13680;49.936;11.344;2023-12-20T00:30:26;17.50;;;10.70;;
25854;SDS011;13680;49.936;11.344;2023-12-20T00:32:51;17.75;;;11.57;;
25854;SDS011;13680;49.936;11.344;2023-12-20T00:35:16;16.38;;;10.10;;
25854;SDS011;13680;49.936;11.344;2023-12-20T00:37:42;15.60;;;10.15;;
25854;SDS011;13680;49.936;11.344;2023-12-20T00:40:08;15.52;;;10.63;;
25854;SDS011;13680;49.936;11.344;2023-12-20T00:42:34;15.82;;;10.23;;
25854;SDS011;13680;49.936;11.344;2023-12-20T00:45:00;13.77;;;9.23;;
25854;SDS011;13680;49.936;11.344;2023-12-20T00:47:26;13.50;;;8.65;;
25854;SDS011;13680;49.936;11.344;2023-12-20T00:49:51;13.63;;;8.85;;
25854;SDS011;13680;49.936;11.344;2023-12-20T00:52:17;11.10;;;7.97;;
25854;SDS011;13680;49.936;11.344;2023-12-20T00:54:43;15.55;;;9.23;;
25854;SDS011;13680;49.936;11.344;2023-12-20T00:57:09;11.20;;;8.13;;
25854;SDS011;13680;49.936;11.344;2023-12-20T00:59:34;11.40;;;8.25;;
25854;SDS011;13680;49.936;11.344;2023-12-20T01:02:00;11.30;;;7.72;;
25854;SDS011;13680;49.936;11.344;2023-12-20T01:04:25;12.43;;;8.85;;
25854;SDS011;13680;49.936;11.344;2023-12-20T01:06:51;11.20;;;7.30;;
25854;SDS011;13680;49.936;11.344;2023-12-20T01:09:17;10.05;;;7.18;;
25854;SDS011;13680;49.936;11.344;2023-12-20T01:11:43;9.90;;;7.43;;
25854;SDS011;13680;49.936;11.344;2023-12-20T01:14:08;9.98;;;7.63;;
25854;SDS011;13680;49.936;11.344;2023-12-20T01:16:34;8.35;;;6.10;;
25854;SDS011;13680;49.936;11.344;2023-12-20T01:18:59;8.75;;;5.93;;
25854;SDS011;13680;49.936;11.344;2023-12-20T01:21:25;7.32;;;5.40;;
25854;SDS011;13680;49.936;11.344;2023-12-20T01:23:50;8.32;;;5.50;;
25854;SDS011;13680;49.936;11.344;2023-12-20T01:26:15;6.93;;;4.70;;
25854;SDS011;13680;49.936;11.344;2023-12-20T01:28:41;6.85;;;4.38;;
25854;SDS011;13680;49.936;11.344;2023-12-20T01:31:07;7.63;;;5.03;;
25854;SDS011;13680;49.936;11.344;2023-12-20T01:33:32;9.82;;;5.22;;
25854;SDS011;13680;49.936;11.344;2023-12-20T01:35:57;5.88;;;4.40;;
25854;SDS011;13680;49.936;11.344;2023-12-20T01:38:23;7.80;;;4.65;;
25854;SDS011;13680;49.936;11.344;2023-12-20T01:40:48;5.97;;;4.15;;
25854;SDS011;13680;49.936;11.344;2023-12-20T01:43:13;5.50;;;3.83;;
25854;SDS011;13680;49.936;11.344;2023-12-20T01:45:38;5.65;;;3.85;;
25854;SDS011;13680;49.936;11.344;2023-12-20T01:48:04;6.07;;;3.58;;
25854;SDS011;13680;49.936;11.344;2023-12-20T01:50:31;4.60;;;3.80;;
25854;SDS011;13680;49.936;11.344;2023-12-20T01:52:57;4.75;;;3.45;;
25854;SDS011;13680;49.936;11.344;2023-12-20T01:55:25;4.55;;;3.45;;
25854;SDS011;13680;49.936;11.344;2023-12-20T01:57:52;4.85;;;3.40;;
25854;SDS011;13680;49.936;11.344;2023-12-20T02:00:17;5.30;;;3.53;;
25854;SDS011;13680;49.936;11.344;2023-12-20T02:02:46;4.80;;;3.15;;
25854;SDS011;13680;49.936;11.344;2023-12-20T02:05:12;4.05;;;3.05;;
25854;SDS011;13680;49.936;11.344;2023-12-20T02:07:38;4.57;;;2.90;;
25854;SDS011;13680;49.936;11.344;2023-12-20T02:10:04;4.50;;;3.63;;
25854;SDS011;13680;49.936;11.344;2023-12-20T02:12:29;5.00;;;3.47;;
25854;SDS011;13680;49.936;11.344;2023-12-20T02:14:55;4.00;;;2.90;;
25854;SDS011;13680;49.936;11.344;2023-12-20T02:17:20;3.55;;;2.63;;
25854;SDS011;13680;49.936;11.344;2023-12-20T02:19:47;3.15;;;2.65;;
25854;SDS011;13680;49.936;11.344;2023-12-20T02:22:12;4.57;;;2.83;;
25854;SDS011;13680;49.936;11.344;2023-12-20T02:24:38;3.55;;;2.45;;
25854;SDS011;13680;49.936;11.344;2023-12-20T02:27:05;4.03;;;2.88;;
25854;SDS011;13680;49.936;11.344;2023-12-20T02:29:32;4.85;;;2.58;;
25854;SDS011;13680;49.936;11.344;2023-12-20T02:31:58;2.40;;;2.00;;
25854;SDS011;13680;49.936;11.344;2023-12-20T02:34:23;4.60;;;2.33;;
25854;SDS011;13680;49.936;11.344;2023-12-20T02:36:48;2.63;;;1.83;;
25854;SDS011;13680;49.936;11.344;2023-12-20T02:39:14;1.90;;;1.58;;
25854;SDS011;13680;49.936;11.344;2023-12-20T02:41:39;3.70;;;2.00;;
25854;SDS011;13680;49.936;11.344;2023-12-20T02:44:04;2.58;;;1.40;;
25854;SDS011;13680;49.936;11.344;2023-12-20T02:46:30;4.07;;;2.00;;
25854;SDS011;13680;49.936;11.344;2023-12-20T02:48:55;3.72;;;2.13;;
25854;SDS011;13680;49.936;11.344;2023-12-20T02:51:20;3.33;;;1.92;;
25854;SDS011;13680;49.936;11.344;2023-12-20T02:53:45;1.67;;;1.42;;
25854;SDS011;13680;49.936;11.344;2023-12-20T02:56:11;3.00;;;1.70;;
25854;SDS011;13680;49.936;11.344;2023-12-20T02:58:36;1.83;;;1.30;;
25854;SDS011;13680;49.936;11.344;2023-12-20T03:01:02;2.80;;;1.70;;
25854;SDS011;13680;49.936;11.344;2023-12-20T03:03:27;1.30;;;1.20;;
25854;SDS011;13680;49.936;11.344;2023-12-20T03:05:53;1.48;;;1.13;;
25854;SDS011;13680;49.936;11.344;2023-12-20T03:08:18;1.55;;;1.20;;
25854;SDS011;13680;49.936;11.344;2023-12-20T03:10:43;1.77;;;1.20;;
25854;SDS011;13680;49.936;11.344;2023-12-20T03:13:09;1.58;;;1.33;;
25854;SDS011;13680;49.936;11.344;2023-12-20T03:15:34;1.42;;;1.08;;
25854;SDS011;13680;49.936;11.344;2023-12-20T03:17:59;2.38;;;1.00;;
25854;SDS011;13680;49.936;11.344;2023-12-20T03:20:25;1.48;;;1.15;;
25854;SDS011;13680;49.936;11.344;2023-12-20T03:22:53;1.08;;;0.90;;
25854;SDS011;13680;49.936;11.344;2023-12-20T03:25:18;1.35;;;1.00;;
25854;SDS011;13680;49.936;11.344;2023-12-20T03:27:43;3.83;;;1.20;;
25854;SDS011;13680;49.936;11.344;2023-12-20T03:30:09;1.40;;;1.23;;
25854;SDS011;13680;49.936;11.344;2023-12-20T03:32:34;1.00;;;0.90;;
25854;SDS011;13680;49.936;11.344;2023-12-20T03:35:00;1.65;;;1.10;;
25854;SDS011;13680;49.936;11.344;2023-12-20T03:37:25;3.10;;;1.00;;
25854;SDS011;13680;49.936;11.344;2023-12-20T03:39:50;3.05;;;1.30;;
25854;SDS011;13680;49.936;11.344;2023-12-20T03:42:16;1.05;;;0.95;;
25854;SDS011;13680;49.936;11.344;2023-12-20T03:44:41;1.02;;;0.90;;
25854;SDS011;13680;49.936;11.344;2023-12-20T03:47:06;1.25;;;1.13;;
25854;SDS011;13680;49.936;11.344;2023-12-20T03:49:32;1.20;;;0.82;;
25854;SDS011;13680;49.936;11.344;2023-12-20T03:51:57;1.02;;;0.85;;
25854;SDS011;13680;49.936;11.344;2023-12-20T03:54:24;1.40;;;1.30;;
25854;SDS011;13680;49.936;11.344;2023-12-20T03:56:49;0.93;;;0.70;;
25854;SDS011;13680;49.936;11.344;2023-12-20T03:59:15;1.48;;;0.73;;
25854;SDS011;13680;49.936;11.344;2023-12-20T04:01:43;0.80;;;0.70;;
25854;SDS011;13680;49.936;11.344;2023-12-20T04:04:10;0.80;;;0.75;;
25854;SDS011;13680;49.936;11.344;2023-12-20T04:06:35;0.80;;;0.70;;
25854;SDS011;13680;49.936;11.344;2023-12-20T04:09:01;2.13;;;0.88;;
25854;SDS011;13680;49.936;11.344;2023-12-20T04:11:26;0.63;;;0.63;;
25854;SDS011;13680;49.936;11.344;2023-12-20T04:13:52;0.52;;;0.52;;
25854;SDS011;13680;49.936;11.344;2023-12-20T04:16:17;0.50;;;0.50;;
25854;SDS011;13680;49.936;11.344;2023-12-20T04:18:42;0.82;;;0.65;;
25854;SDS011;13680;49.936;11.344;2023-12-20T04:21:07;0.60;;;0.55;;
25854;SDS011;13680;49.936;11.344;2023-12-20T04:23:33;0.75;;;0.70;;
25854;SDS011;13680;49.936;11.344;2023-12-20T04:25:58;1.20;;;0.68;;
25854;SDS011;13680;49.936;11.344;2023-12-20T04:28:23;0.70;;;0.70;;
25854;SDS011;13680;49.936;11.344;2023-12-20T04:30:49;0.88;;;0.70;;
25854;SDS011;13680;49.936;11.344;2023-12-20T04:33:14;0.60;;;0.57;;
25854;SDS011;13680;49.936;11.344;2023-12-20T04:35:39;0.70;;;0.70;;
25854;SDS011;13680;49.936;11.344;2023-12-20T04:38:06;0.70;;;0.70;;
25854;SDS011;13680;49.936;11.344;2023-12-20T04:40:31;2.58;;;0.82;;
25854;SDS011;13680;49.936;11.344;2023-12-20T04:42:57;1.08;;;0.80;;
25854;SDS011;13680;49.936;11.344;2023-12-20T04:45:22;1.08;;;0.80;;
25854;SDS011;13680;49.936;11.344;2023-12-20T04:47:49;1.02;;;0.60;;
25854;SDS011;13680;49.936;11.344;2023-12-20T04:50:15;1.92;;;0.88;;
25854;SDS011;13680;49.936;11.344;2023-12-20T04:52:41;0.60;;;0.60;;
25854;SDS011;13680;49.936;11.344;2023-12-20T04:55:07;0.88;;;0.80;;
25854;SDS011;13680;49.936;11.344;2023-12-20T04:57:33;1.05;;;0.88;;
25854;SDS011;13680;49.936;11.344;2023-12-20T04:59:59;2.28;;;0.75;;
25854;SDS011;13680;49.936;11.344;2023-12-20T05:02:24;0.70;;;0.70;;
25854;SDS011;13680;49.936;11.344;2023-12-20T05:04:50;0.75;;;0.68;;
25854;SDS011;13680;49.936;11.344;2023-12-20T05:07:17;0.90;;;0.70;;
25854;SDS011;13680;49.936;11.344;2023-12-20T05:09:42;0.65;;;0.65;;
25854;SDS011;13680;49.936;11.344;2023-12-20T05:12:07;0.73;;;0.70;;
25854;SDS011;13680;49.936;11.344;2023-12-20T05:14:33;55.15;;;21.83;;
25854;SDS011;13680;49.936;11.344;2023-12-20T05:16:58;27.20;;;13.10;;
25854;SDS011;13680;49.936;11.344;2023-12-20T05:19:24;0.95;;;0.93;;
25854;SDS011;13680;49.936;11.344;2023-12-20T05:21:49;1.00;;;0.82;;
25854;SDS011;13680;49.936;11.344;2023-12-20T05:24:15;0.70;;;0.70;;
25854;SDS011;13680;49.936;11.344;2023-12-20T05:26:40;0.82;;;0.75;;
25854;SDS011;13680;49.936;11.344;2023-12-20T05:29:05;1.42;;;1.33;;
25854;SDS011;13680;49.936;11.344;2023-12-20T05:31:31;0.88;;;0.73;;
25854;SDS011;13680;49.936;11.344;2023-12-20T05:33:57;0.93;;;0.75;;
25854;SDS011;13680;49.936;11.344;2023-12-20T05:36:22;0.95;;;0.80;;
25854;SDS011;13680;49.936;11.344;2023-12-20T05:38:47;2.35;;;0.80;;
25854;SDS011;13680;49.936;11.344;2023-12-20T05:41:13;0.82;;;0.82;;
25854;SDS011;13680;49.936;11.344;2023-12-20T05:43:38;0.85;;;0.70;;
25854;SDS011;13680;49.936;11.344;2023-12-20T05:46:04;1.20;;;0.98;;
25854;SDS011;13680;49.936;11.344;2023-12-20T05:48:30;2.47;;;1.95;;
25854;SDS011;13680;49.936;11.344;2023-12-20T05:50:55;1.10;;;1.00;;
25854;SDS011;13680;49.936;11.344;2023-12-20T05:53:21;1.10;;;1.00;;
25854;SDS011;13680;49.936;11.344;2023-12-20T05:55:46;1.20;;;1.05;;
25854;SDS011;13680;49.936;11.344;2023-12-20T05:58:12;1.30;;;1.17;;
25854;SDS011;13680;49.936;11.344;2023-12-20T06:00:37;1.35;;;1.25;;
25854;SDS011;13680;49.936;11.344;2023-12-20T06:03:03;1.48;;;1.38;;
25854;SDS011;13680;49.936;11.344;2023-12-20T06:05:29;2.85;;;1.95;;
25854;SDS011;13680;49.936;11.344;2023-12-20T06:07:55;1.60;;;1.50;;
25854;SDS011;13680;49.936;11.344;2023-12-20T06:10:22;3.00;;;1.90;;
25854;SDS011;13680;49.936;11.344;2023-12-20T06:12:48;1.73;;;1.63;;
25854;SDS011;13680;49.936;11.344;2023-12-20T06:15:15;2.53;;;1.67;;
25854;SDS011;13680;49.936;11.344;2023-12-20T06:17:40;1.50;;;1.40;;
25854;SDS011;13680;49.936;11.344;2023-12-20T06:20:06;1.50;;;1.40;;
25854;SDS011;13680;49.936;11.344;2023-12-20T06:22:33;1.58;;;1.45;;
25854;SDS011;13680;49.936;11.344;2023-12-20T06:24:59;1.88;;;1.40;;
25854;SDS011;13680;49.936;11.344;2023-12-20T06:27:24;1.40;;;1.30;;
25854;SDS011;13680;49.936;11.344;2023-12-20T06:29:50;2.10;;;1.90;;
25854;SDS011;13680;49.936;11.344;2023-12-20T06:32:15;3.08;;;2.00;;
25854;SDS011;13680;49.936;11.344;2023-12-20T06:34:40;1.88;;;1.58;;
25854;SDS011;13680;49.936;11.344;2023-12-20T06:37:06;1.80;;;1.60;;
25854;SDS011;13680;49.936;11.344;2023-12-20T06:39:31;1.80;;;1.70;;
25854;SDS011;13680;49.936;11.344;2023-12-20T06:41:56;3.05;;;2.15;;
25854;SDS011;13680;49.936;11.344;2023-12-20T06:44:22;2.47;;;2.13;;
25854;SDS011;13680;49.936;11.344;2023-12-20T06:46:47;3.53;;;2.45;;
25854;SDS011;13680;49.936;11.344;2023-12-20T06:49:12;4.00;;;2.58;;
25854;SDS011;13680;49.936;11.344;2023-12-20T06:51:37;2.53;;;2.30;;
25854;SDS011;13680;49.936;11.344;2023-12-20T06:54:03;4.00;;;2.60;;
25854;SDS011;13680;49.936;11.344;2023-12-20T06:56:28;3.58;;;2.28;;
25854;SDS011;13680;49.936;11.344;2023-12-20T06:58:54;2.60;;;2.40;;
25854;SDS011;13680;49.936;11.344;2023-12-20T07:01:19;3.58;;;3.22;;
25854;SDS011;13680;49.936;11.344;2023-12-20T07:03:44;4.18;;;3.25;;
25854;SDS011;13680;49.936;11.344;2023-12-20T07:06:10;4.78;;;2.67;;
25854;SDS011;13680;49.936;11.344;2023-12-20T07:08:36;6.43;;;3.60;;
25854;SDS011;13680;49.936;11.344;2023-12-20T07:11:01;3.70;;;2.55;;
25854;SDS011;13680;49.936;11.344;2023-12-20T07:13:27;3.25;;;2.50;;
25854;SDS011;13680;49.936;11.344;2023-12-20T07:15:52;3.55;;;2.70;;
25854;SDS011;13680;49.936;11.344;2023-12-20T07:18:17;6.00;;;3.20;;
25854;SDS011;13680;49.936;11.344;2023-12-20T07:20:43;3.78;;;3.10;;
25854;SDS011;13680;49.936;11.344;2023-12-20T07:23:08;2.90;;;2.30;;
25854;SDS011;13680;49.936;11.344;2023-12-20T07:25:33;4.57;;;2.80;;
25854;SDS011;13680;49.936;11.344;2023-12-20T07:27:59;3.83;;;3.20;;
25854;SDS011;13680;49.936;11.344;2023-12-20T07:30:24;3.88;;;3.00;;
25854;SDS011;13680;49.936;11.344;2023-12-20T07:32:49;4.22;;;2.85;;
25854;SDS011;13680;49.936;11.344;2023-12-20T07:35:15;9.32;;;3.42;;
25854;SDS011;13680;49.936;11.344;2023-12-20T07:37:41;4.85;;;3.28;;
25854;SDS011;13680;49.936;11.344;2023-12-20T07:40:06;4.95;;;3.28;;
25854;SDS011;13680;49.936;11.344;2023-12-20T07:42:33;5.15;;;3.20;;
25854;SDS011;13680;49.936;11.344;2023-12-20T07:44:58;8.45;;;3.60;;
25854;SDS011;13680;49.936;11.344;2023-12-20T07:47:23;5.47;;;3.38;;
25854;SDS011;13680;49.936;11.344;2023-12-20T07:49:50;5.28;;;3.38;;
25854;SDS011;13680;49.936;11.344;2023-12-20T07:52:18;5.28;;;3.80;;
25854;SDS011;13680;49.936;11.344;2023-12-20T07:54:44;6.22;;;3.67;;
25854;SDS011;13680;49.936;11.344;2023-12-20T07:57:10;5.47;;;4.22;;
25854;SDS011;13680;49.936;11.344;2023-12-20T07:59:36;7.68;;;3.92;;
25854;SDS011;13680;49.936;11.344;2023-12-20T08:02:01;4.95;;;3.83;;
25854;SDS011;13680;49.936;11.344;2023-12-20T08:04:26;4.68;;;3.55;;
25854;SDS011;13680;49.936;11.344;2023-12-20T08:06:52;5.80;;;3.85;;
25854;SDS011;13680;49.936;11.344;2023-12-20T08:09:17;5.70;;;4.40;;
25854;SDS011;13680;49.936;11.344;2023-12-20T08:11:46;6.40;;;3.88;;
25854;SDS011;13680;49.936;11.344;2023-12-20T08:14:12;5.65;;;4.15;;
25854;SDS011;13680;49.936;11.344;2023-12-20T08:16:37;9.45;;;4.55;;
25854;SDS011;13680;49.936;11.344;2023-12-20T08:19:03;5.07;;;4.22;;
25854;SDS011;13680;49.936;11.344;2023-12-20T08:21:28;5.68;;;4.18;;
25854;SDS011;13680;49.936;11.344;2023-12-20T08:23:53;5.45;;;4.30;;
25854;SDS011;13680;49.936;11.344;2023-12-20T08:26:19;8.25;;;4.28;;
25854;SDS011;13680;49.936;11.344;2023-12-20T08:28:46;8.07;;;4.35;;
25854;SDS011;13680;49.936;11.344;2023-12-20T08:31:14;8.57;;;4.60;;
25854;SDS011;13680;49.936;11.344;2023-12-20T08:33:41;7.25;;;5.03;;
25854;SDS011;13680;49.936;11.344;2023-12-20T08:36:08;8.30;;;4.60;;
25854;SDS011;13680;49.936;11.344;2023-12-20T08:38:33;7.10;;;3.70;;
25854;SDS011;13680;49.936;11.344;2023-12-20T08:40:59;6.53;;;4.85;;
25854;SDS011;13680;49.936;11.344;2023-12-20T08:43:24;9.93;;;4.85;;
25854;SDS011;13680;49.936;11.344;2023-12-20T08:45:49;5.68;;;3.25;;
25854;SDS011;13680;49.936;11.344;2023-12-20T08:48:15;5.35;;;4.00;;
25854;SDS011;13680;49.936;11.344;2023-12-20T08:50:40;5.35;;;3.80;;
25854;SDS011;13680;49.936;11.344;2023-12-20T08:53:05;5.80;;;3.65;;
25854;SDS011;13680;49.936;11.344;2023-12-20T08:55:31;9.35;;;4.47;;
25854;SDS011;13680;49.936;11.344;2023-12-20T08:57:56;5.63;;;3.67;;
25854;SDS011;13680;49.936;11.344;2023-12-20T09:00:21;5.70;;;3.70;;
25854;SDS011;13680;49.936;11.344;2023-12-20T09:02:49;6.88;;;4.65;;
25854;SDS011;13680;49.936;11.344;2023-12-20T09:05:15;5.68;;;3.65;;
25854;SDS011;13680;49.936;11.344;2023-12-20T09:07:41;5.82;;;4.18;;
25854;SDS011;13680;49.936;11.344;2023-12-20T09:10:06;8.38;;;3.88;;
25854;SDS011;13680;49.936;11.344;2023-12-20T09:12:32;4.55;;;3.17;;
25854;SDS011;13680;49.936;11.344;2023-12-20T09:14:57;5.38;;;3.35;;
25854;SDS011;13680;49.936;11.344;2023-12-20T09:17:23;4.88;;;3.10;;
25854;SDS011;13680;49.936;11.344;2023-12-20T09:19:48;5.22;;;3.10;;
25854;SDS011;13680;49.936;11.344;2023-12-20T09:22:14;7.88;;;3.40;;
25854;SDS011;13680;49.936;11.344;2023-12-20T09:24:39;4.53;;;3.83;;
25854;SDS011;13680;49.936;11.344;2023-12-20T09:27:05;5.65;;;3.28;;
25854;SDS011;13680;49.936;11.344;2023-12-20T09:29:30;8.40;;;5.13;;
25854;SDS011;13680;49.936;11.344;2023-12-20T09:31:56;6.60;;;3.00;;
25854;SDS011;13680;49.936;11.344;2023-12-20T09:34:22;7.45;;;3.00;;
25854;SDS011;13680;49.936;11.344;2023-12-20T09:36:48;6.55;;;3.92;;
25854;SDS011;13680;49.936;11.344;2023-12-20T09:39:13;5.93;;;3.83;;
25854;SDS011;13680;49.936;11.344;2023-12-20T09:41:42;10.00;;;3.20;;
25854;SDS011;13680;49.936;11.344;2023-12-20T09:44:08;7.95;;;2.88;;
25854;SDS011;13680;49.936;11.344;2023-12-20T09:46:39;4.90;;;3.17;;
25854;SDS011;13680;49.936;11.344;2023-12-20T09:49:08;9.57;;;3.38;;
25854;SDS011;13680;49.936;11.344;2023-12-20T09:51:33;6.10;;;2.78;;
25854;SDS011;13680;49.936;11.344;2023-12-20T09:54:00;11.80;;;3.47;;
25854;SDS011;13680;49.936;11.344;2023-12-20T09:56:28;5.97;;;2.90;;
25854;SDS011;13680;49.936;11.344;2023-12-20T09:58:54;9.13;;;2.65;;
25854;SDS011;13680;49.936;11.344;2023-12-20T10:01:19;6.95;;;2.70;;
25854;SDS011;13680;49.936;11.344;2023-12-20T10:03:46;7.68;;;2.80;;
25854;SDS011;13680;49.936;11.344;2023-12-20T10:06:11;6.00;;;2.20;;
25854;SDS011;13680;49.936;11.344;2023-12-20T10:08:37;7.38;;;2.28;;
25854;SDS011;13680;49.936;11.344;2023-12-20T10:11:03;9.68;;;2.30;;
25854;SDS011;13680;49.936;11.344;2023-12-20T10:13:29;7.30;;;1.95;;
25854;SDS011;13680;49.936;11.344;2023-12-20T10:15:55;7.90;;;2.88;;
25854;SDS011;13680;49.936;11.344;2023-12-20T10:18:21;9.02;;;5.22;;
25854;SDS011;13680;49.936;11.344;2023-12-20T10:20:46;8.30;;;2.92;;
25854;SDS011;13680;49.936;11.344;2023-12-20T10:23:12;7.55;;;2.30;;
25854;SDS011;13680;49.936;11.344;2023-12-20T10:25:39;11.65;;;5.63;;
25854;SDS011;13680;49.936;11.344;2023-12-20T10:28:10;5.90;;;3.35;;
25854;SDS011;13680;49.936;11.344;2023-12-20T10:30:38;8.65;;;3.55;;
25854;SDS011;13680;49.936;11.344;2023-12-20T10:33:07;4.93;;;2.47;;
25854;SDS011;13680;49.936;11.344;2023-12-20T10:35:33;6.45;;;2.90;;
25854;SDS011;13680;49.936;11.344;2023-12-20T10:37:58;9.98;;;3.15;;
25854;SDS011;13680;49.936;11.344;2023-12-20T10:40:28;12.88;;;4.22;;
25854;SDS011;13680;49.936;11.344;2023-12-20T10:42:54;8.48;;;3.92;;
25854;SDS011;13680;49.936;11.344;2023-12-20T10:45:21;11.32;;;3.97;;
25854;SDS011;13680;49.936;11.344;2023-12-20T10:47:47;7.95;;;2.78;;
25854;SDS011;13680;49.936;11.344;2023-12-20T10:50:15;6.20;;;2.42;;
25854;SDS011;13680;49.936;11.344;2023-12-20T10:52:40;6.50;;;2.40;;
25854;SDS011;13680;49.936;11.344;2023-12-20T10:55:07;6.75;;;2.53;;
25854;SDS011;13680;49.936;11.344;2023-12-20T10:57:33;7.60;;;3.28;;
25854;SDS011;13680;49.936;11.344;2023-12-20T11:00:01;12.13;;;2.90;;
25854;SDS011;13680;49.936;11.344;2023-12-20T11:02:33;10.93;;;2.20;;
25854;SDS011;13680;49.936;11.344;2023-12-20T11:05:10;8.90;;;2.40;;
25854;SDS011;13680;49.936;11.344;2023-12-20T11:08:14;8.30;;;2.55;;
25854;SDS011;13680;49.936;11.344;2023-12-20T11:13:27;13.57;;;2.45;;
25854;SDS011;13680;49.936;11.344;2023-12-20T11:15:56;7.43;;;2.10;;
25854;SDS011;13680;49.936;11.344;2023-12-20T11:18:28;7.60;;;2.17;;
25854;SDS011;13680;49.936;11.344;2023-12-20T11:20:54;10.10;;;2.22;;
25854;SDS011;13680;49.936;11.344;2023-12-20T11:23:19;6.70;;;2.28;;
25854;SDS011;13680;49.936;11.344;2023-12-20T11:25:51;10.57;;;2.55;;
25854;SDS011;13680;49.936;11.344;2023-12-20T11:28:22;8.15;;;2.42;;
25854;SDS011;13680;49.936;11.344;2023-12-20T11:33:15;5.97;;;1.83;;
25854;SDS011;13680;49.936;11.344;2023-12-20T11:35:41;8.15;;;2.10;;
25854;SDS011;13680;49.936;11.344;2023-12-20T11:38:07;8.73;;;1.98;;
25854;SDS011;13680;49.936;11.344;2023-12-20T11:40:34;7.30;;;1.70;;
25854;SDS011;13680;49.936;11.344;2023-12-20T11:43:00;4.68;;;2.03;;
25854;SDS011;13680;49.936;11.344;2023-12-20T11:45:25;6.78;;;1.90;;
25854;SDS011;13680;49.936;11.344;2023-12-20T11:47:52;4.47;;;1.95;;
25854;SDS011;13680;49.936;11.344;2023-12-20T11:50:19;12.48;;;2.95;;
25854;SDS011;13680;49.936;11.344;2023-12-20T11:52:46;8.20;;;2.38;;
25854;SDS011;13680;49.936;11.344;2023-12-20T11:55:12;4.80;;;1.48;;
25854;SDS011;13680;49.936;11.344;2023-12-20T11:57:37;6.97;;;2.17;;
25854;SDS011;13680;49.936;11.344;2023-12-20T12:00:03;6.53;;;2.05;;
25854;SDS011;13680;49.936;11.344;2023-12-20T12:02:30;5.15;;;2.10;;
25854;SDS011;13680;49.936;11.344;2023-12-20T12:04:56;5.88;;;1.60;;
25854;SDS011;13680;49.936;11.344;2023-12-20T12:07:21;6.88;;;2.05;;
25854;SDS011;13680;49.936;11.344;2023-12-20T12:09:47;7.60;;;1.70;;
25854;SDS011;13680;49.936;11.344;2023-12-20T12:12:12;8.85;;;2.17;;
25854;SDS011;13680;49.936;11.344;2023-12-20T12:14:38;8.20;;;1.80;;
25854;SDS011;13680;49.936;11.344;2023-12-20T12:17:09;11.00;;;1.98;;
25854;SDS011;13680;49.936;11.344;2023-12-20T12:19:35;10.27;;;2.65;;
25854;SDS011;13680;49.936;11.344;2023-12-20T12:22:09;7.90;;;1.88;;
25854;SDS011;13680;49.936;11.344;2023-12-20T12:24:39;3.47;;;1.70;;
25854;SDS011;13680;49.936;11.344;2023-12-20T12:27:08;8.48;;;2.50;;
25854;SDS011;13680;49.936;11.344;2023-12-20T12:29:34;7.47;;;2.15;;
25854;SDS011;13680;49.936;11.344;2023-12-20T12:32:00;6.68;;;1.77;;
25854;SDS011;13680;49.936;11.344;2023-12-20T12:34:28;6.40;;;1.80;;
25854;SDS011;13680;49.936;11.344;2023-12-20T12:36:54;10.95;;;2.22;;
25854;SDS011;13680;49.936;11.344;2023-12-20T12:39:20;8.13;;;1.50;;
25854;SDS011;13680;49.936;11.344;2023-12-20T12:41:45;21.17;;;9.25;;
25854;SDS011;13680;49.936;11.344;2023-12-20T12:44:12;8.73;;;1.98;;
25854;SDS011;13680;49.936;11.344;2023-12-20T12:46:38;7.15;;;2.22;;
25854;SDS011;13680;49.936;11.344;2023-12-20T12:49:03;7.75;;;1.85;;
25854;SDS011;13680;49.936;11.344;2023-12-20T12:51:29;10.13;;;1.60;;
25854;SDS011;13680;49.936;11.344;2023-12-20T12:53:54;4.93;;;1.50;;
25854;SDS011;13680;49.936;11.344;2023-12-20T12:56:19;4.80;;;1.45;;
25854;SDS011;13680;49.936;11.344;2023-12-20T12:58:44;7.88;;;1.67;;
25854;SDS011;13680;49.936;11.344;2023-12-20T13:01:10;3.92;;;1.60;;
25854;SDS011;13680;49.936;11.344;2023-12-20T13:03:36;7.13;;;1.58;;
25854;SDS011;13680;49.936;11.344;2023-12-20T13:06:01;5.93;;;2.30;;
25854;SDS011;13680;49.936;11.344;2023-12-20T13:08:28;5.50;;;1.90;;
25854;SDS011;13680;49.936;11.344;2023-12-20T13:10:54;9.02;;;3.03;;
25854;SDS011;13680;49.936;11.344;2023-12-20T13:13:20;9.02;;;4.00;;
25854;SDS011;13680;49.936;11.344;2023-12-20T13:15:45;5.93;;;2.60;;
25854;SDS011;13680;49.936;11.344;2023-12-20T13:18:15;6.88;;;1.73;;
25854;SDS011;13680;49.936;11.344;2023-12-20T13:20:41;3.63;;;1.85;;
25854;SDS011;13680;49.936;11.344;2023-12-20T13:23:07;7.93;;;2.10;;
25854;SDS011;13680;49.936;11.344;2023-12-20T13:25:32;5.63;;;1.77;;
25854;SDS011;13680;49.936;11.344;2023-12-20T13:27:58;7.72;;;1.80;;
25854;SDS011;13680;49.936;11.344;2023-12-20T13:30:24;9.57;;;2.65;;
25854;SDS011;13680;49.936;11.344;2023-12-20T13:32:49;8.63;;;2.35;;
25854;SDS011;13680;49.936;11.344;2023-12-20T13:35:15;7.32;;;2.67;;
25854;SDS011;13680;49.936;11.344;2023-12-20T13:37:40;13.27;;;3.30;;
25854;SDS011;13680;49.936;11.344;2023-12-20T13:40:06;7.07;;;2.55;;
25854;SDS011;13680;49.936;11.344;2023-12-20T13:42:32;10.40;;;3.47;;
25854;SDS011;13680;49.936;11.344;2023-12-20T13:44:57;11.63;;;3.17;;
25854;SDS011;13680;49.936;11.344;2023-12-20T13:47:22;13.57;;;2.53;;
25854;SDS011;13680;49.936;11.344;2023-12-20T13:49:47;8.40;;;2.95;;
25854;SDS011;13680;49.936;11.344;2023-12-20T13:52:13;8.52;;;1.98;;
25854;SDS011;13680;49.936;11.344;2023-12-20T13:54:38;13.10;;;2.10;;
25854;SDS011;13680;49.936;11.344;2023-12-20T13:57:03;12.35;;;2.25;;
25854;SDS011;13680;49.936;11.344;2023-12-20T13:59:29;8.70;;;1.73;;
25854;SDS011;13680;49.936;11.344;2023-12-20T14:01:55;5.15;;;2.22;;
25854;SDS011;13680;49.936;11.344;2023-12-20T14:04:22;7.38;;;2.17;;
25854;SDS011;13680;49.936;11.344;2023-12-20T14:06:47;6.22;;;1.75;;
25854;SDS011;13680;49.936;11.344;2023-12-20T14:09:12;13.60;;;2.40;;
25854;SDS011;13680;49.936;11.344;2023-12-20T14:11:38;6.43;;;2.45;;
25854;SDS011;13680;49.936;11.344;2023-12-20T14:14:06;5.88;;;1.63;;
25854;SDS011;13680;49.936;11.344;2023-12-20T14:16:33;10.32;;;2.30;;
25854;SDS011;13680;49.936;11.344;2023-12-20T14:18:59;7.38;;;2.03;;
25854;SDS011;13680;49.936;11.344;2023-12-20T14:21:24;9.75;;;2.13;;
25854;SDS011;13680;49.936;11.344;2023-12-20T14:23:49;7.03;;;2.63;;
25854;SDS011;13680;49.936;11.344;2023-12-20T14:26:15;7.05;;;2.05;;
25854;SDS011;13680;49.936;11.344;2023-12-20T14:28:41;10.20;;;2.13;;